Time;durP1;ratioP1;P1;durP2;ratioP2;P2;SDS_P1;SDS_P2;PMS_P1;PMS_P2;Temp;Humidity;BMP_temperature;BMP_pressure;BME280_temperature;BME280_humidity;BME280_pressure;Samples;Min_cycle;Max_cycle;Signal;HPM_P1;HPM_P2
2022/03/19 05:25:02;;;;;;;6.28;3.60;;;;;;;4.32;68.32;102792.94;5109224;23;20052;-95
2022/03/19 05:27:32;;;;;;;8.15;3.53;;;;;;;4.21;67.74;102789.25;4913869;29;20044;-94
2022/03/19 05:30:03;;;;;;;8.25;3.80;;;;;;;4.15;68.61;102784.78;4918563;29;20025;-92
2022/03/19 05:32:45;;;;;;;9.75;3.92;;;;;;;4.23;69.21;102822.53;4915694;29;20066;-94
2022/03/19 05:35:28;;;;;;;6.57;3.45;;;;;;;3.89;69.24;102759.84;4916156;29;20039;-93
2022/03/19 05:37:55;;;;;;;10.48;3.97;;;;;;;3.93;69.51;102768.66;4920280;29;20107;-93
2022/03/19 05:40:24;;;;;;;9.00;3.83;;;;;;;4.02;70.02;102788.06;4944455;23;20055;-93
2022/03/19 05:43:05;;;;;;;10.38;4.07;;;;;;;4.16;69.95;102811.88;4944720;29;20051;-94
2022/03/19 05:45:41;;;;;;;7.97;3.88;;;;;;;3.88;70.32;102760.72;4946452;28;20060;-95
2022/03/19 05:48:11;;;;;;;8.13;3.72;;;;;;;4.32;70.43;102828.78;4946689;28;20066;-94
2022/03/19 05:50:58;;;;;;;8.48;3.65;;;;;;;4.32;69.44;102816.56;4941941;29;20070;-94
2022/03/19 05:53:37;;;;;;;7.65;3.85;;;;;;;4.08;69.87;102787.28;4914255;29;20044;-95
2022/03/19 05:56:18;;;;;;;7.43;3.75;;;;;;;3.92;70.20;102764.28;4920599;29;20059;-94
2022/03/19 05:59:03;;;;;;;7.13;3.67;;;;;;;4.12;70.13;102783.84;4921161;29;20048;-95
2022/03/19 06:01:45;;;;;;;9.00;3.72;;;;;;;3.95;70.32;102764.31;4925858;29;20082;-96
2022/03/19 06:04:19;;;;;;;9.70;3.92;;;;;;;3.97;70.44;102760.88;4926172;29;20540;-94
2022/03/19 06:07:03;;;;;;;9.07;4.00;;;;;;;4.34;70.31;102819.19;4908363;29;20058;-93
2022/03/19 06:10:10;;;;;;;9.45;4.50;;;;;;;4.38;70.62;102814.03;4933771;29;20308;-93
2022/03/19 06:12:50;;;;;;;9.95;4.25;;;;;;;4.03;70.54;102757.47;4923113;29;20124;-94
2022/03/19 06:15:21;;;;;;;8.20;4.20;;;;;;;4.34;70.45;102806.09;4915408;29;20058;-93
2022/03/19 06:17:50;;;;;;;12.13;4.00;;;;;;;4.08;70.50;102761.06;4917006;29;20063;-93
2022/03/19 06:20:23;;;;;;;14.55;4.85;;;;;;;4.14;70.70;102758.53;4923431;29;20058;-94
2022/03/19 06:22:52;;;;;;;9.20;4.38;;;;;;;4.42;70.14;102788.72;4920076;29;20051;-94
2022/03/19 06:25:28;;;;;;;7.47;3.80;;;;;;;4.44;69.59;102777.41;4916311;29;20062;-94
2022/03/19 06:28:09;;;;;;;9.95;4.30;;;;;;;4.35;70.15;102756.28;4931901;29;20123;-95
2022/03/19 06:30:44;;;;;;;8.43;4.07;;;;;;;4.43;69.88;102754.66;4925867;29;20791;-94
2022/03/19 06:33:16;;;;;;;9.80;4.43;;;;;;;4.85;69.72;102816.53;4925998;29;20566;-94
2022/03/19 06:38:38;;;;;;;14.10;4.72;;;;;;;4.89;68.84;102797.34;4935257;29;20082;-94
2022/03/19 06:41:06;;;;;;;7.00;4.38;;;;;;;4.82;68.82;102779.75;4926099;29;20066;-94
2022/03/19 06:43:43;;;;;;;11.65;5.15;;;;;;;5.05;68.83;102812.44;4926258;29;20196;-94
2022/03/19 06:46:12;;;;;;;11.35;4.90;;;;;;;4.91;68.31;102779.88;4913272;29;20266;-96
2022/03/19 06:49:00;;;;;;;9.02;4.32;;;;;;;5.07;68.57;102792.34;4933544;29;20139;-94
2022/03/19 06:51:37;;;;;;;9.75;4.28;;;;;;;4.89;68.02;102763.19;4927415;29;20048;-95
2022/03/19 06:54:13;;;;;;;9.60;4.38;;;;;;;4.92;68.31;102760.63;4936018;29;20055;-95
2022/03/19 06:56:41;;;;;;;10.32;4.72;;;;;;;5.02;68.61;102773.03;4933901;29;20043;-94
2022/03/19 06:59:23;;;;;;;12.35;4.65;;;;;;;5.08;68.49;102773.09;4933328;29;20576;-94
2022/03/19 07:02:05;;;;;;;9.27;4.60;;;;;;;5.48;67.69;102831.44;4930792;29;20480;-95
2022/03/19 07:04:46;;;;;;;10.05;4.35;;;;;;;5.48;69.39;102820.94;4932566;29;20056;-94
2022/03/19 07:07:24;;;;;;;8.18;4.70;;;;;;;5.42;69.40;102784.94;5057010;23;20097;-90
2022/03/19 07:10:03;;;;;;;8.90;4.60;;;;;;;5.49;69.06;102783.28;4896443;29;20132;-95
2022/03/19 07:12:45;;;;;;;13.57;5.40;;;;;;;5.60;67.83;102781.66;5046009;23;20052;-96
2022/03/19 07:15:29;;;;;;;12.98;4.75;;;;;;;5.64;66.82;102760.69;4917584;29;20111;-93
2022/03/19 07:18:09;;;;;;;15.27;4.85;;;;;;;5.77;66.28;102777.47;4917243;29;20111;-96
2022/03/19 07:20:40;;;;;;;;;;;;;;;6.20;66.38;102827.91;4902798;29;20052;-92
2022/03/19 07:23:07;;;;;;;10.73;4.68;;;;;;;6.07;66.29;102786.56;4994894;23;19922;-93
2022/03/19 07:25:39;;;;;;;11.38;4.80;;;;;;;6.11;67.15;102773.47;4954443;28;20093;-93
2022/03/19 07:28:11;;;;;;;8.68;4.57;;;;;;;6.54;65.54;102815.94;4962049;28;20078;-96
2022/03/19 07:30:41;;;;;;;11.52;4.82;;;;;;;6.60;64.83;102801.06;4956852;28;20054;-94
2022/03/19 07:33:11;;;;;;;11.80;5.03;;;;;;;6.67;64.51;102794.97;4969161;28;20450;-94
2022/03/19 07:35:44;;;;;;;8.57;5.20;;;;;;;6.90;64.59;102804.78;4957645;28;20054;-95
2022/03/19 07:38:11;;;;;;;11.48;5.18;;;;;;;6.94;64.20;102796.91;4954277;28;20057;-93
2022/03/19 07:43:26;;;;;;;14.25;5.60;;;;;;;7.16;63.05;102786.50;4973238;28;20154;-94
2022/03/19 07:45:56;;;;;;;11.18;5.65;;;;;;;7.16;63.21;102775.94;4969094;28;20042;-94
2022/03/19 07:48:25;;;;;;;10.55;5.18;;;;;;;7.29;62.76;102761.94;4964402;28;20047;-93
2022/03/19 07:50:55;;;;;;;14.15;5.90;;;;;;;7.57;61.74;102784.91;4971296;28;20056;-94
2022/03/19 07:53:24;;;;;;;9.23;5.03;;;;;;;7.60;61.04;102762.94;4951960;28;20051;-92
2022/03/19 07:55:58;;;;;;;11.38;5.55;;;;;;;7.80;60.65;102770.91;4967229;28;20043;-94
2022/03/19 07:58:27;;;;;;;10.70;5.82;;;;;;;7.86;60.56;102774.47;4966289;28;20055;-95
2022/03/19 08:01:01;;;;;;;8.95;5.40;;;;;;;8.14;60.27;102803.53;4965932;28;20057;-94
2022/03/19 08:03:29;;;;;;;10.45;5.25;;;;;;;7.88;59.22;102737.50;4963403;28;20043;-95
2022/03/19 08:05:59;;;;;;;12.43;5.72;;;;;;;8.08;58.98;102757.75;4972267;28;20470;-94
2022/03/19 08:08:30;;;;;;;10.88;5.28;;;;;;;8.23;58.07;102769.22;4957633;28;20046;-95
2022/03/19 08:11:14;;;;;;;11.27;5.57;;;;;;;8.36;57.79;102771.00;4975606;28;20059;-95
2022/03/19 08:13:45;;;;;;;12.75;5.50;;;;;;;8.58;56.81;102788.59;4965685;28;20051;-94
2022/03/19 08:16:19;;;;;;;10.85;5.80;;;;;;;8.58;57.23;102763.97;4978707;28;20086;-93
2022/03/19 08:18:49;;;;;;;10.50;5.43;;;;;;;8.52;56.35;102727.88;4972383;28;20129;-94
2022/03/19 08:21:18;;;;;;;12.40;5.47;;;;;;;8.91;56.66;102771.84;4977907;28;20047;-94
2022/03/19 08:23:47;;;;;;;12.05;5.95;;;;;;;8.93;56.47;102745.41;4969284;28;20114;-94
2022/03/19 08:26:22;;;;;;;12.73;5.65;;;;;;;9.13;55.50;102767.34;4964889;28;20075;-92
2022/03/19 08:28:53;;;;;;;9.45;5.55;;;;;;;8.88;55.65;102711.06;4969178;28;20051;-93
2022/03/19 08:31:22;;;;;;;11.20;5.45;;;;;;;9.14;54.83;102746.19;4975826;28;20055;-93
2022/03/19 08:33:49;;;;;;;11.25;6.05;;;;;;;9.39;54.80;102776.09;4985983;28;20046;-92
2022/03/19 08:36:19;;;;;;;11.48;5.70;;;;;;;9.15;54.94;102702.13;4966767;28;20501;-95
2022/03/19 08:41:33;;;;;;;10.70;5.57;;;;;;;9.56;53.99;102722.22;4970792;28;20051;-92
2022/03/19 08:44:04;;;;;;;10.55;6.15;;;;;;;9.79;53.38;102746.75;4968604;28;20055;-93
2022/03/19 08:46:31;;;;;;;13.57;6.43;;;;;;;9.43;52.76;102701.16;4971715;28;20101;-94
2022/03/19 08:49:00;;;;;;;10.23;5.88;;;;;;;9.57;52.81;102716.06;4968711;28;20054;-93
2022/03/19 08:51:51;;;;;;;13.07;6.00;;;;;;;9.65;53.03;102716.88;4980074;28;20069;-94
2022/03/19 08:54:21;;;;;;;10.90;6.10;;;;;;;9.69;53.83;102716.84;4980257;28;20054;-95
2022/03/19 08:56:55;;;;;;;11.82;6.15;;;;;;;9.73;53.04;102688.59;4978775;28;20039;-93
2022/03/19 08:59:38;;;;;;;11.40;6.78;;;;;;;9.91;53.13;102691.13;4978242;28;20052;-94
2022/03/19 09:02:19;;;;;;;13.30;6.63;;;;;;;10.64;50.66;102682.53;5015870;23;20087;-96
2022/03/19 09:05:34;;;;;;;;;;;;;;;;;;;;;
2022/03/19 09:08:19;;;;;;;;;;;;;;;;;;;;;
2022/03/19 09:10:58;;;;;;;12.40;6.22;;;;;;;11.72;47.20;102666.94;4930015;29;20154;-94
2022/03/19 09:13:36;;;;;;;14.00;6.00;;;;;;;12.29;45.32;102676.59;4923886;29;20091;-95
2022/03/19 09:16:06;;;;;;;10.88;6.28;;;;;;;12.68;45.13;102652.84;4920216;29;20060;-96
2022/03/19 09:18:33;;;;;;;10.65;5.43;;;;;;;13.39;43.75;102710.78;4915850;29;20054;-95
2022/03/19 09:21:06;;;;;;;12.93;5.85;;;;;;;13.49;43.54;102686.63;4925138;29;20081;-94
2022/03/19 09:23:35;;;;;;;8.65;5.85;;;;;;;13.67;41.91;102635.63;4920141;29;20066;-94
2022/03/19 09:26:11;;;;;;;11.20;6.38;;;;;;;14.06;41.91;102707.44;4922250;29;20168;-93
2022/03/19 09:28:38;;;;;;;11.68;6.90;;;;;;;14.21;41.22;102688.41;4919820;29;20492;-96
2022/03/19 09:31:09;;;;;;;9.48;5.95;;;;;;;14.10;41.06;102663.84;4924614;29;20587;-95
2022/03/19 09:33:52;;;;;;;;;;;;;;;;;;;;;
2022/03/19 09:36:19;;;;;;;11.15;6.10;;;;;;;14.90;40.51;102673.25;4919221;29;20060;-95
2022/03/19 09:38:50;;;;;;;11.80;6.10;;;;;;;14.78;39.70;102631.81;4919328;29;20032;-94
2022/03/19 09:44:02;;;;;;;10.77;5.88;;;;;;;15.04;38.57;102629.22;4946182;29;20534;-93
2022/03/19 09:46:30;;;;;;;14.30;6.10;;;;;;;15.13;38.50;102601.38;4937085;29;20131;-95
2022/03/19 09:49:12;;;;;;;7.85;4.60;;;;;;;15.75;35.41;102644.78;4944300;29;20455;-93
2022/03/19 09:51:49;;;;;;;;;;;;;;;16.08;34.76;102663.28;4952602;28;20058;-92
2022/03/19 09:54:25;;;;;;;10.38;4.68;;;;;;;15.90;34.81;102599.81;4947535;29;19931;-92
2022/03/19 09:56:54;;;;;;;9.18;4.47;;;;;;;16.29;33.32;102634.97;4947596;29;20053;-92
2022/03/19 09:59:26;;;;;;;11.80;5.85;;;;;;;16.28;32.99;102609.16;4950429;29;20059;-94
2022/03/19 10:01:54;;;;;;;6.65;4.13;;;;;;;16.67;32.79;102588.16;4956189;29;20035;-92
2022/03/19 10:04:30;;;;;;;8.75;4.40;;;;;;;17.03;31.83;102580.47;5129995;23;20088;-94
2022/03/19 10:10:16;;;;;;;8.20;4.05;;;;;;;17.11;30.58;102567.69;4914115;29;20071;-93
2022/03/19 10:13:09;;;;;;;7.70;4.20;;;;;;;16.86;31.51;102580.25;4910505;29;20059;-92
2022/03/19 10:15:54;;;;;;;7.45;4.70;;;;;;;17.14;30.66;102584.50;4898678;29;20060;-93
2022/03/19 10:18:39;;;;;;;9.20;5.03;;;;;;;17.40;30.18;102625.44;4898910;29;20096;-94
2022/03/19 10:23:45;;;;;;;7.95;4.65;;;;;;;17.17;30.27;102533.50;5369714;23;20408;-94
2022/03/19 10:26:37;;;;;;;8.70;4.57;;;;;;;17.67;30.32;102602.03;4961439;23;20155;-93
2022/03/19 10:29:07;;;;;;;7.80;4.30;;;;;;;18.15;28.97;102591.88;4930364;28;20051;-94
2022/03/19 10:31:39;;;;;;;5.80;4.45;;;;;;;18.28;28.85;102576.13;4934262;29;20048;-94
2022/03/19 10:34:07;;;;;;;9.75;4.38;;;;;;;18.09;28.67;102553.75;4927972;29;20054;-93
2022/03/19 10:36:43;;;;;;;7.10;4.50;;;;;;;17.96;29.08;102563.25;4929024;29;20056;-93
2022/03/19 10:39:21;;;;;;;7.25;4.65;;;;;;;18.11;28.86;102578.66;4932178;29;20059;-94
2022/03/19 10:41:49;;;;;;;8.48;4.78;;;;;;;18.07;28.47;102535.06;4931039;29;20155;-93
2022/03/19 10:44:19;;;;;;;8.35;4.65;;;;;;;18.68;27.66;102528.72;4940564;29;20047;-93
2022/03/19 10:46:55;;;;;;;;;;;;;;;19.33;26.07;102559.59;4926165;29;20051;-93
2022/03/19 10:49:27;;;;;;;6.28;4.05;;;;;;;18.97;25.93;102532.72;4930789;29;19923;-94
2022/03/19 10:51:59;;;;;;;9.05;4.65;;;;;;;19.04;25.56;102508.19;4935720;29;20048;-93
2022/03/19 10:54:30;;;;;;;7.25;4.00;;;;;;;19.04;26.16;102526.13;4935893;29;20048;-93
2022/03/19 10:57:00;;;;;;;6.65;4.30;;;;;;;19.71;25.30;102526.31;4928580;29;20539;-96
2022/03/19 10:59:31;;;;;;;;;;;;;;;19.85;25.35;102539.91;4924180;29;20052;-95
2022/03/19 11:02:01;;;;;;;7.93;4.15;;;;;;;19.05;26.05;102539.44;4933237;29;19939;-94
2022/03/19 11:04:35;;;;;;;5.70;3.50;;;;;;;19.01;26.05;102529.81;4930231;29;20090;-95
2022/03/19 11:07:04;;;;;;;7.13;3.75;;;;;;;19.37;25.45;102540.53;4936056;29;20062;-92
2022/03/19 11:09:42;;;;;;;5.57;3.10;;;;;;;19.41;23.98;102460.66;4944693;29;20093;-93
2022/03/19 11:12:17;;;;;;;6.22;2.83;;;;;;;19.96;22.68;102507.09;4934369;29;20048;-93
2022/03/19 11:14:45;;;;;;;5.15;3.13;;;;;;;20.38;21.61;102506.63;4933782;29;20140;-93
2022/03/19 11:17:28;;;;;;;5.53;2.42;;;;;;;19.76;22.08;102457.03;4932485;29;20107;-93
2022/03/19 11:20:09;;;;;;;;;;;;;;;20.16;21.73;102497.94;4940981;29;20114;-94
2022/03/19 11:22:46;;;;;;;3.83;2.30;;;;;;;20.27;21.34;102474.03;4943298;29;20042;-94
2022/03/19 11:25:37;;;;;;;3.75;2.05;;;;;;;20.32;21.09;102436.97;4932101;29;20054;-92
2022/03/19 11:28:22;;;;;;;3.90;2.00;;;;;;;21.17;20.87;102448.25;4935881;29;20051;-95
2022/03/19 11:31:08;;;;;;;5.32;1.73;;;;;;;21.68;19.40;102411.06;4936517;29;20062;-94
2022/03/19 11:33:45;;;;;;;3.60;1.70;;;;;;;21.53;18.73;102456.00;4944573;29;20071;-95
2022/03/19 11:36:14;;;;;;;3.63;1.60;;;;;;;21.03;19.15;102450.88;4932660;29;20059;-95
2022/03/19 11:38:54;;;;;;;4.32;1.25;;;;;;;20.91;17.81;102395.91;4940604;29;20091;-95
2022/03/19 11:41:47;;;;;;;2.72;1.50;;;;;;;21.43;16.80;102386.53;4941715;29;20055;-95
2022/03/19 11:44:25;;;;;;;3.00;1.30;;;;;;;21.59;17.27;102422.38;4944789;29;20056;-95
2022/03/19 11:47:14;;;;;;;3.28;1.13;;;;;;;21.61;16.65;102425.88;4944069;29;20058;-94
2022/03/19 11:49:54;;;;;;;2.78;1.38;;;;;;;21.55;16.63;102427.13;4936289;29;20080;-94
2022/03/19 11:52:25;;;;;;;1.80;1.10;;;;;;;21.76;16.73;102422.22;4944078;29;20055;-94
2022/03/19 11:55:29;;;;;;;4.25;1.55;;;;;;;21.44;16.75;102355.94;4940933;29;20472;-95
2022/03/19 11:58:03;;;;;;;2.83;1.50;;;;;;;21.68;17.42;102376.00;4944067;29;20051;-93
2022/03/19 12:01:02;;;;;;;2.92;1.30;;;;;;;21.25;17.77;102389.41;4943275;29;20044;-95
2022/03/19 12:06:59;;;;;;;5.53;1.80;;;;;;;21.40;16.76;102384.06;5270505;23;20053;-96
2022/03/19 12:09:40;;;;;;;3.00;1.48;;;;;;;21.54;16.73;102393.03;4958983;29;20051;-95
2022/03/19 12:12:16;;;;;;;1.92;1.35;;;;;;;21.53;16.47;102407.47;4959427;28;20039;-93
2022/03/19 12:14:57;;;;;;;4.63;1.70;;;;;;;20.97;16.52;102317.44;4954963;28;20130;-94
2022/03/19 12:17:26;;;;;;;3.80;2.10;;;;;;;21.06;17.28;102388.75;4947875;29;21913;-96
2022/03/19 12:23:01;;;;;;;3.05;1.65;;;;;;;21.47;16.29;102367.41;5017706;23;20071;31
2022/03/19 12:29:59;;;;;;;4.25;1.77;;;;;;;21.30;16.92;102367.56;4937132;28;20441;-93
2022/03/19 12:32:58;;;;;;;4.40;1.73;;;;;;;21.03;17.23;102308.13;4928023;29;20055;-93
2022/03/19 12:36:31;;;;;;;5.50;1.95;;;;;;;20.85;17.26;102311.91;4940575;28;20677;-92
2022/03/19 12:43:17;;;;;;;4.23;2.00;;;;;;;20.33;18.16;102350.78;4972245;28;20065;-96
2022/03/19 12:45:51;;;;;;;2.58;1.73;;;;;;;20.04;18.16;102288.81;4975750;28;20494;-95
2022/03/19 12:49:10;;;;;;;;;;;;;;;;;;;;;
2022/03/19 13:01:41;;;;;;;2.75;1.60;;;;;;;20.16;18.91;102331.16;5181573;23;20059;-94
2022/03/19 13:09:24;;;;;;;4.28;1.60;;;;;;;21.87;17.05;102282.19;4787049;29;20058;-96
2022/03/19 13:58:04;;;;;;;2.00;1.15;;;;;;;20.16;16.79;102251.31;1842539;23;20471;-91
2022/03/19 14:13:31;;;;;;;;;;;;;;;;;;;;;
2022/03/19 14:16:53;;;;;;;;;;;;;;;;;;;;;
2022/03/19 14:19:31;;;;;;;5.25;1.30;;;;;;;17.86;19.17;102214.38;5014597;23;20047;-95
2022/03/19 14:35:33;;;;;;;3.17;1.10;;;;;;;18.82;19.67;102206.84;4957396;28;20051;-94
2022/03/19 14:49:57;;;;;;;2.38;1.05;;;;;;;21.97;16.51;102150.28;5221846;23;20047;-92
2022/03/19 14:53:16;;;;;;;2.90;0.93;;;;;;;18.71;19.21;102151.06;4929617;29;20052;-93
2022/03/19 14:55:52;;;;;;;5.72;1.13;;;;;;;17.60;21.13;102186.13;4932234;29;20052;-94
2022/03/19 14:58:23;;;;;;;3.65;1.05;;;;;;;16.53;22.16;102136.63;4995922;23;20052;-96
2022/03/19 15:01:23;;;;;;;3.33;1.13;;;;;;;15.47;23.80;102136.63;4947084;28;20051;-96
2022/03/19 15:30:14;;;;;;;3.90;1.20;;;;;;;14.78;25.27;102129.53;4933269;28;20052;-93
2022/03/19 15:32:52;;;;;;;1.90;1.00;;;;;;;14.20;25.31;102102.25;4926837;29;20116;-94
2022/03/19 15:35:24;;;;;;;1.83;1.13;;;;;;;13.63;26.28;102125.47;5121294;23;20106;31
2022/03/19 15:38:17;;;;;;;3.05;1.00;;;;;;;13.01;27.62;102159.28;4927532;29;20052;-94
2022/03/19 15:49:42;;;;;;;5.05;1.17;;;;;;;11.59;29.93;102122.28;5008276;23;20098;-94
2022/03/19 15:52:12;;;;;;;5.68;1.40;;;;;;;11.31;30.56;102110.56;4926602;29;20083;-94
2022/03/19 15:54:51;;;;;;;3.90;1.25;;;;;;;11.32;30.83;102145.03;4947304;28;20043;-94
2022/03/19 16:00:39;;;;;;;3.40;1.33;;;;;;;11.52;30.99;102104.75;4819539;29;20546;-95
2022/03/19 16:03:09;;;;;;;3.88;1.40;;;;;;;12.00;31.05;102136.34;4832083;29;20251;-94
2022/03/19 16:05:37;;;;;;;4.55;1.70;;;;;;;12.19;33.46;102154.44;4813148;29;20061;-96
2022/03/19 16:08:06;;;;;;;3.95;1.20;;;;;;;11.78;35.56;102120.09;4811435;29;20477;-93
2022/03/19 16:10:34;;;;;;;5.45;1.80;;;;;;;11.14;37.32;102087.09;4818501;29;20050;-95
2022/03/19 16:13:04;;;;;;;6.18;1.60;;;;;;;10.97;38.50;102123.69;4818972;29;20065;-94
2022/03/19 16:15:54;;;;;;;;;;;;;;;;;;;;;
2022/03/19 16:18:24;;;;;;;5.80;1.70;;;;;;;10.12;40.97;102099.72;4824442;29;20058;-93
2022/03/19 16:21:07;;;;;;;;;;;;;;;10.52;41.38;102158.16;4830314;29;20490;-93
2022/03/19 16:23:42;;;;;;;4.32;1.60;;;;;;;10.53;41.32;102162.56;4819379;29;19929;-95
2022/03/19 16:26:21;;;;;;;6.25;1.88;;;;;;;10.27;40.70;102103.88;4815538;29;20069;-94
2022/03/19 16:29:10;;;;;;;5.03;1.60;;;;;;;10.22;41.11;102106.63;4820946;29;20055;-96
2022/03/19 16:32:52;;;;;;;5.72;1.70;;;;;;;10.31;41.65;102140.88;4842129;29;20121;-94
2022/03/19 16:35:35;;;;;;;6.75;1.95;;;;;;;10.13;42.08;102146.47;4831865;29;20050;-93
2022/03/19 16:38:17;;;;;;;3.92;1.80;;;;;;;9.96;43.02;102146.75;4853329;29;20045;-91
2022/03/19 16:40:48;;;;;;;7.78;2.13;;;;;;;9.64;42.96;102115.50;4843635;29;20566;-92
2022/03/19 16:43:27;;;;;;;5.70;2.83;;;;;;;9.72;42.72;102157.72;4860878;29;20072;-96
2022/03/19 16:46:12;;;;;;;6.85;2.47;;;;;;;9.20;43.01;102116.19;4848188;29;20053;-95
2022/03/19 16:52:32;;;;;;;7.93;2.50;;;;;;;9.27;43.44;102161.91;4910261;23;20065;31
2022/03/19 17:03:53;;;;;;;5.23;1.70;;;;;;;8.50;45.31;102111.75;4917643;29;20039;-95
2022/03/19 17:07:01;;;;;;;5.65;1.83;;;;;;;8.64;45.67;102141.56;4935915;29;20055;-95
2022/03/19 17:09:45;;;;;;;6.30;1.80;;;;;;;8.36;46.17;102114.56;4927084;29;20115;-95
2022/03/19 17:12:22;;;;;;;6.55;1.85;;;;;;;8.66;46.34;102168.78;4919689;29;20266;-94
2022/03/19 17:15:12;;;;;;;8.05;2.05;;;;;;;8.31;46.74;102111.06;4918653;29;20050;-93
2022/03/19 17:17:45;;;;;;;4.72;2.20;;;;;;;8.28;46.73;102103.19;4916847;29;20040;-93
2022/03/19 17:20:40;;;;;;;8.23;2.28;;;;;;;8.48;46.77;102131.19;4924018;29;20459;-93
2022/03/19 17:23:19;;;;;;;6.65;2.30;;;;;;;8.25;47.29;102111.13;4934306;29;20078;-93
2022/03/19 17:25:57;;;;;;;5.03;2.00;;;;;;;8.58;47.41;102162.72;4935563;29;20098;-94
2022/03/19 17:28:32;;;;;;;7.70;2.00;;;;;;;8.38;47.56;102128.63;4936089;29;20051;-94
2022/03/19 17:48:57;;;;;;;8.80;4.53;;;;;;;7.96;47.55;102098.22;5421607;23;20101;-95
2022/03/19 17:51:36;;;;;;;10.07;5.10;;;;;;;8.22;47.57;102160.41;4954774;29;20126;-95
2022/03/19 17:54:36;;;;;;;9.00;5.38;;;;;;;8.02;48.02;102145.66;4949606;28;20055;-96
2022/03/19 17:57:26;;;;;;;10.93;6.10;;;;;;;7.84;48.32;102143.16;4950671;28;20111;-96
2022/03/19 18:00:39;;;;;;;;;;;;;;;;;;;;;
2022/03/19 18:03:22;;;;;;;11.32;6.50;;;;;;;7.88;50.09;102178.28;4872820;29;20127;-93
2022/03/19 18:06:07;;;;;;;12.25;6.53;;;;;;;7.51;50.97;102138.13;4891508;29;20507;-92
2022/03/19 18:08:37;;;;;;;10.85;6.75;;;;;;;7.46;51.32;102155.72;4895720;29;20230;-90
2022/03/19 18:11:12;;;;;;;10.35;7.03;;;;;;;7.46;52.18;102153.09;4899386;29;20140;-90
2022/03/19 18:14:34;;;;;;;10.85;6.95;;;;;;;7.41;52.61;102174.19;4894603;29;20056;-91
2022/03/19 18:17:43;;;;;;;12.65;8.52;;;;;;;7.34;53.27;102161.97;4936337;29;20071;-91
2022/03/19 18:20:36;;;;;;;11.65;8.15;;;;;;;7.10;54.27;102143.63;4943408;28;20184;-90
2022/03/19 18:23:09;;;;;;;15.05;9.80;;;;;;;7.18;54.26;102169.06;4948054;28;20114;-92
2022/03/19 18:25:44;;;;;;;17.02;10.27;;;;;;;7.35;54.69;102187.44;4949192;28;20066;-92
2022/03/19 18:28:16;;;;;;;16.42;10.40;;;;;;;7.25;55.07;102167.25;4954574;28;20411;-92
2022/03/19 18:34:33;;;;;;;16.08;9.55;;;;;;;7.10;55.37;102136.59;4944491;28;20055;-92
2022/03/19 18:37:17;;;;;;;15.27;9.30;;;;;;;7.31;55.85;102170.75;4953576;28;20469;-91
2022/03/19 18:39:57;;;;;;;14.68;9.02;;;;;;;7.23;55.78;102159.41;4953033;29;20675;-94
2022/03/19 18:42:52;;;;;;;13.20;8.98;;;;;;;7.44;55.92;102186.50;4954774;28;20415;-94
2022/03/19 18:46:34;;;;;;;16.70;9.95;;;;;;;7.11;56.28;102145.38;4920920;29;20131;-93
2022/03/19 18:49:54;;;;;;;;;;;;;;;;;;;;;
2022/03/19 18:53:12;;;;;;;;;;;;;;;;;;;;;
2022/03/19 18:56:17;;;;;;;14.57;9.32;;;;;;;7.21;56.62;102147.97;4899261;29;20112;-94
2022/03/19 18:59:23;;;;;;;46.72;25.95;;;;;;;7.33;56.89;102176.91;4901518;29;20049;-95
2022/03/19 19:02:43;;;;;;;;;;;;;;;;;;;;;
2022/03/19 19:05:39;;;;;;;18.17;11.93;;;;;;;7.14;57.46;102132.19;4875066;29;20268;-94
2022/03/19 19:11:58;;;;;;;;;;;;;;;;;;;;;
2022/03/19 19:15:42;;;;;;;21.63;11.77;;;;;;;7.22;57.81;102143.59;4896517;29;20148;-94
2022/03/19 19:18:38;;;;;;;20.40;14.25;;;;;;;7.12;57.56;102148.00;4895273;29;20060;-95
2022/03/19 19:25:07;;;;;;;20.67;14.68;;;;;;;6.78;57.79;102109.53;4891538;29;20057;-94
2022/03/19 19:28:12;;;;;;;22.95;14.90;;;;;;;6.68;57.47;102109.56;4927798;29;20143;-95
2022/03/19 19:31:03;;;;;;;20.70;14.07;;;;;;;6.64;57.16;102105.19;4935120;29;20056;-94
2022/03/19 19:34:05;;;;;;;24.33;14.63;;;;;;;6.71;57.21;102113.09;4906058;29;20495;-92
2022/03/19 19:36:59;;;;;;;;;;;;;;;;;;;;;
2022/03/19 19:40:11;;;;;;;23.35;15.65;;;;;;;6.83;56.48;102105.13;4927851;29;20048;-96
2022/03/19 19:43:23;;;;;;;;;;;;;;;;;;;;;
2022/03/19 19:49:18;;;;;;;26.42;17.50;;;;;;;6.94;55.95;102116.47;4927747;29;20052;-95
2022/03/19 19:55:58;;;;;;;23.95;16.40;;;;;;;6.64;55.53;102065.72;4880246;29;20060;-95
2022/03/19 19:58:48;;;;;;;26.73;17.05;;;;;;;6.76;55.72;102090.25;4876130;29;20180;-94
2022/03/19 20:01:44;;;;;;;25.38;16.92;;;;;;;6.88;55.34;102114.78;4874462;29;20052;-94
2022/03/19 20:04:49;;;;;;;26.30;16.73;;;;;;;6.67;55.89;102092.03;4881519;29;20048;-95
2022/03/19 20:08:16;;;;;;;;;;;;;;;;;;;;;
2022/03/19 20:11:28;;;;;;;48.30;29.83;;;;;;;6.43;55.32;102064.94;4856425;29;20053;-94
2022/03/19 20:14:45;;;;;;;;;;;;;;;;;;;;;
2022/03/19 20:18:28;;;;;;;;;;;;;;;;;;;;;
2022/03/19 20:21:32;;;;;;;33.50;21.08;;;;;;;6.38;55.13;102041.25;4922971;29;20060;-94
2022/03/19 20:25:12;;;;;;;28.67;20.23;;;;;;;6.61;55.22;102073.63;4901654;29;20079;-95
2022/03/19 20:28:47;;;;;;;30.70;21.40;;;;;;;6.36;55.64;102036.88;4932479;29;20044;-94
2022/03/19 20:35:54;;;;;;;;;;;;;;;;;;;;;
2022/03/19 20:42:49;;;;;;;;;;;;;;;;;;;;;
2022/03/19 20:46:16;;;;;;;30.00;19.87;;;;;;;6.19;55.11;102029.03;4814643;29;20053;-95
2022/03/19 20:53:40;;;;;;;;;;;;;;;;;;;;;
2022/03/19 21:01:06;;;;;;;31.08;21.38;;;;;;;5.88;55.65;102007.16;4879158;29;20053;-96
2022/03/19 21:23:39;;;;;;;;;;;;;;;;;;;;;
2022/03/19 21:43:21;;;;;;;31.17;20.83;;;;;;;4.87;58.44;101917.94;4738132;30;20059;-96
2022/03/19 21:49:32;;;;;;;31.88;20.95;;;;;;;4.99;58.61;101939.81;4751195;29;20083;-95
2022/03/19 21:52:29;;;;;;;34.05;22.35;;;;;;;5.04;59.04;101962.56;4808659;29;20118;-95
2022/03/19 21:55:26;;;;;;;31.95;23.00;;;;;;;4.72;58.99;101911.81;4826842;29;20695;-94
2022/03/19 22:01:58;;;;;;;;;;;;;;;;;;;;;
2022/03/19 22:05:14;;;;;;;;;;;;;;;;;;;;;
2022/03/19 22:08:00;;;;;;;34.20;22.83;;;;;;;4.76;58.98;101909.16;4789500;29;20059;-93
2022/03/19 22:11:37;;;;;;;;;;;;;;;;;;;;;
2022/03/19 22:14:39;;;;;;;35.65;22.35;;;;;;;4.59;59.92;101916.13;4826682;29;20053;-93
2022/03/19 22:17:51;;;;;;;34.75;22.75;;;;;;;4.75;60.25;101943.28;4762663;30;20094;-92
2022/03/19 22:20:47;;;;;;;35.63;23.42;;;;;;;4.54;60.66;101908.28;4796772;29;20495;-93
2022/03/19 22:23:36;;;;;;;;;;;;;;;;;;;;;
2022/03/19 22:26:17;;;;;;;33.17;22.70;;;;;;;4.51;60.06;101910.03;4897929;29;20052;-94
2022/03/19 22:29:15;;;;;;;30.25;22.10;;;;;;;4.26;60.61;101872.34;4936795;29;20135;-93
2022/03/19 22:32:20;;;;;;;35.33;23.25;;;;;;;4.45;60.76;101889.88;4909029;29;20119;-92
2022/03/19 22:35:03;;;;;;;;;;;;;;;;;;;;;
2022/03/19 22:37:52;;;;;;;33.53;23.40;;;;;;;4.50;60.37;101901.28;4932640;29;20048;-93
2022/03/19 22:40:43;;;;;;;31.27;21.23;;;;;;;4.43;59.99;101889.00;4937937;29;20060;-94
2022/03/19 22:43:53;;;;;;;33.92;22.65;;;;;;;4.31;60.09;101851.38;4932028;29;20055;-93
2022/03/19 22:46:58;;;;;;;33.70;22.42;;;;;;;4.40;59.98;101869.78;4935636;29;20052;-92
2022/03/19 22:49:42;;;;;;;34.70;22.80;;;;;;;4.24;59.56;101866.25;4939368;29;20055;-93
2022/03/19 22:52:38;;;;;;;;;;;;;;;;;;;;;
2022/03/19 22:56:04;;;;;;;;;;;;;;;;;;;;;
2022/03/19 22:59:12;;;;;;;;;;;;;;;;;;;;;
2022/03/19 23:02:27;;;;;;;;;;;;;;;;;;;;;
2022/03/19 23:05:28;;;;;;;;;;;;;;;;;;;;;
2022/03/19 23:09:12;;;;;;;30.75;21.70;;;;;;;4.06;60.12;101827.75;4962150;29;20113;-92
2022/03/19 23:11:42;;;;;;;31.33;22.20;;;;;;;3.99;59.92;101812.00;4944271;29;20087;-93
2022/03/19 23:14:36;;;;;;;;;;;;;;;;;;;;;
2022/03/19 23:17:29;;;;;;;33.28;22.10;;;;;;;3.96;59.33;101805.00;4951284;29;20067;-93
2022/03/19 23:20:22;;;;;;;33.47;22.33;;;;;;;3.99;59.63;101810.25;4954308;29;20051;-92
2022/03/19 23:27:46;;;;;;;;;;;;;;;;;;;;;
2022/03/19 23:30:40;;;;;;;30.40;22.08;;;;;;;4.19;58.69;101850.50;4899561;29;20084;-94
2022/03/19 23:33:44;;;;;;;37.75;21.98;;;;;;;4.08;58.71;101833.88;4880670;29;20064;-92
2022/03/19 23:37:17;;;;;;;;;;;;;;;;;;;;;
2022/03/19 23:40:33;;;;;;;;;;;;;;;;;;;;;
2022/03/19 23:43:24;;;;;;;31.02;21.33;;;;;;;3.98;58.38;101818.09;4897028;29;20171;-92